sensor_id;sensor_type;location;lat;lon;timestamp;P1;durP1;ratioP1;P2;durP2;ratioP2
55222;SDS011;41090;48.632;12.428;2022-10-16T00:00:56;9.47;;;4.27;;
55222;SDS011;41090;48.632;12.428;2022-10-16T00:03:21;6.07;;;3.90;;
55222;SDS011;41090;48.632;12.428;2022-10-16T00:05:46;5.70;;;4.57;;
55222;SDS011;41090;48.632;12.428;2022-10-16T00:08:11;6.67;;;3.83;;
55222;SDS011;41090;48.632;12.428;2022-10-16T00:10:37;5.23;;;3.50;;
55222;SDS011;41090;48.632;12.428;2022-10-16T00:13:03;4.63;;;3.97;;
55222;SDS011;41090;48.632;12.428;2022-10-16T00:15:28;6.97;;;3.60;;
55222;SDS011;41090;48.632;12.428;2022-10-16T00:17:54;4.43;;;3.67;;
55222;SDS011;41090;48.632;12.428;2022-10-16T00:20:19;6.10;;;3.70;;
55222;SDS011;41090;48.632;12.428;2022-10-16T00:22:44;5.27;;;3.47;;
55222;SDS011;41090;48.632;12.428;2022-10-16T00:25:10;6.80;;;3.53;;
55222;SDS011;41090;48.632;12.428;2022-10-16T00:27:35;5.23;;;3.70;;
55222;SDS011;41090;48.632;12.428;2022-10-16T00:30:00;4.27;;;3.60;;
55222;SDS011;41090;48.632;12.428;2022-10-16T00:32:26;6.37;;;3.30;;
55222;SDS011;41090;48.632;12.428;2022-10-16T00:34:51;4.97;;;3.07;;
55222;SDS011;41090;48.632;12.428;2022-10-16T00:37:19;4.30;;;3.40;;
55222;SDS011;41090;48.632;12.428;2022-10-16T00:39:44;7.33;;;3.80;;
55222;SDS011;41090;48.632;12.428;2022-10-16T00:42:13;5.37;;;3.30;;
55222;SDS011;41090;48.632;12.428;2022-10-16T00:44:56;9.10;;;4.00;;
55222;SDS011;41090;48.632;12.428;2022-10-16T00:47:39;7.80;;;3.67;;
55222;SDS011;41090;48.632;12.428;2022-10-16T00:52:33;3.73;;;3.43;;
55222;SDS011;41090;48.632;12.428;2022-10-16T00:54:59;8.10;;;3.27;;
55222;SDS011;41090;48.632;12.428;2022-10-16T00:57:25;5.53;;;3.60;;
55222;SDS011;41090;48.632;12.428;2022-10-16T00:59:50;4.50;;;3.40;;
55222;SDS011;41090;48.632;12.428;2022-10-16T01:02:16;5.03;;;3.17;;
55222;SDS011;41090;48.632;12.428;2022-10-16T01:04:42;4.27;;;3.10;;
55222;SDS011;41090;48.632;12.428;2022-10-16T01:07:18;4.17;;;3.10;;
55222;SDS011;41090;48.632;12.428;2022-10-16T01:09:52;6.23;;;3.30;;
55222;SDS011;41090;48.632;12.428;2022-10-16T01:12:23;4.63;;;3.20;;
55222;SDS011;41090;48.632;12.428;2022-10-16T01:14:58;3.83;;;3.03;;
55222;SDS011;41090;48.632;12.428;2022-10-16T01:25:17;4.60;;;3.20;;
55222;SDS011;41090;48.632;12.428;2022-10-16T01:27:44;3.93;;;2.93;;
55222;SDS011;41090;48.632;12.428;2022-10-16T01:30:12;3.70;;;3.03;;
55222;SDS011;41090;48.632;12.428;2022-10-16T01:32:48;5.87;;;2.90;;
55222;SDS011;41090;48.632;12.428;2022-10-16T01:40:38;3.70;;;3.40;;
55222;SDS011;41090;48.632;12.428;2022-10-16T01:43:24;3.40;;;3.10;;
55222;SDS011;41090;48.632;12.428;2022-10-16T01:45:50;4.63;;;3.43;;
55222;SDS011;41090;48.632;12.428;2022-10-16T01:48:17;5.77;;;3.30;;
55222;SDS011;41090;48.632;12.428;2022-10-16T01:50:44;4.13;;;3.23;;
55222;SDS011;41090;48.632;12.428;2022-10-16T01:53:11;5.37;;;3.63;;
55222;SDS011;41090;48.632;12.428;2022-10-16T01:55:38;4.00;;;3.37;;
55222;SDS011;41090;48.632;12.428;2022-10-16T01:58:08;5.57;;;3.63;;
55222;SDS011;41090;48.632;12.428;2022-10-16T02:00:36;4.70;;;2.93;;
55222;SDS011;41090;48.632;12.428;2022-10-16T02:03:02;6.17;;;2.97;;
55222;SDS011;41090;48.632;12.428;2022-10-16T02:05:30;3.10;;;2.80;;
55222;SDS011;41090;48.632;12.428;2022-10-16T02:07:56;4.60;;;3.03;;
55222;SDS011;41090;48.632;12.428;2022-10-16T02:10:21;5.57;;;3.00;;
55222;SDS011;41090;48.632;12.428;2022-10-16T02:12:49;2.90;;;2.70;;
55222;SDS011;41090;48.632;12.428;2022-10-16T02:15:16;3.27;;;2.73;;
55222;SDS011;41090;48.632;12.428;2022-10-16T02:17:41;6.53;;;2.93;;
55222;SDS011;41090;48.632;12.428;2022-10-16T02:20:07;4.13;;;2.80;;
55222;SDS011;41090;48.632;12.428;2022-10-16T02:22:34;8.17;;;3.07;;
55222;SDS011;41090;48.632;12.428;2022-10-16T02:25:22;6.57;;;3.47;;
55222;SDS011;41090;48.632;12.428;2022-10-16T02:27:53;5.23;;;2.97;;
55222;SDS011;41090;48.632;12.428;2022-10-16T02:30:21;9.07;;;3.00;;
55222;SDS011;41090;48.632;12.428;2022-10-16T02:32:48;4.00;;;2.47;;
55222;SDS011;41090;48.632;12.428;2022-10-16T02:35:18;3.00;;;2.63;;
55222;SDS011;41090;48.632;12.428;2022-10-16T02:37:44;4.33;;;2.77;;
55222;SDS011;41090;48.632;12.428;2022-10-16T02:40:10;3.77;;;2.77;;
55222;SDS011;41090;48.632;12.428;2022-10-16T02:42:37;3.70;;;2.93;;
55222;SDS011;41090;48.632;12.428;2022-10-16T02:45:03;2.80;;;2.50;;
55222;SDS011;41090;48.632;12.428;2022-10-16T02:47:28;4.80;;;2.73;;
55222;SDS011;41090;48.632;12.428;2022-10-16T02:49:53;3.33;;;2.93;;
55222;SDS011;41090;48.632;12.428;2022-10-16T02:52:19;3.47;;;3.10;;
55222;SDS011;41090;48.632;12.428;2022-10-16T02:54:44;3.57;;;2.87;;
55222;SDS011;41090;48.632;12.428;2022-10-16T02:57:09;3.13;;;2.50;;
55222;SDS011;41090;48.632;12.428;2022-10-16T02:59:35;5.23;;;2.83;;
55222;SDS011;41090;48.632;12.428;2022-10-16T03:02:00;7.83;;;2.97;;
55222;SDS011;41090;48.632;12.428;2022-10-16T03:04:25;5.00;;;2.80;;
55222;SDS011;41090;48.632;12.428;2022-10-16T03:06:51;7.30;;;3.40;;
55222;SDS011;41090;48.632;12.428;2022-10-16T03:09:16;6.63;;;3.30;;
55222;SDS011;41090;48.632;12.428;2022-10-16T03:11:41;3.17;;;2.73;;
55222;SDS011;41090;48.632;12.428;2022-10-16T03:14:06;3.17;;;2.87;;
55222;SDS011;41090;48.632;12.428;2022-10-16T03:16:32;5.53;;;2.73;;
55222;SDS011;41090;48.632;12.428;2022-10-16T03:18:57;4.80;;;2.80;;
55222;SDS011;41090;48.632;12.428;2022-10-16T03:21:23;5.07;;;2.60;;
55222;SDS011;41090;48.632;12.428;2022-10-16T03:23:49;3.07;;;2.87;;
55222;SDS011;41090;48.632;12.428;2022-10-16T03:26:14;4.93;;;2.50;;
55222;SDS011;41090;48.632;12.428;2022-10-16T03:28:40;3.43;;;3.13;;
55222;SDS011;41090;48.632;12.428;2022-10-16T03:31:05;4.30;;;2.97;;
55222;SDS011;41090;48.632;12.428;2022-10-16T03:33:30;4.73;;;3.10;;
55222;SDS011;41090;48.632;12.428;2022-10-16T03:35:56;3.17;;;2.83;;
55222;SDS011;41090;48.632;12.428;2022-10-16T03:38:21;3.30;;;3.00;;
55222;SDS011;41090;48.632;12.428;2022-10-16T03:40:47;3.00;;;2.70;;
55222;SDS011;41090;48.632;12.428;2022-10-16T03:43:12;3.33;;;2.90;;
55222;SDS011;41090;48.632;12.428;2022-10-16T03:45:37;3.93;;;3.00;;
55222;SDS011;41090;48.632;12.428;2022-10-16T03:48:03;4.50;;;2.77;;
55222;SDS011;41090;48.632;12.428;2022-10-16T03:50:28;3.00;;;2.70;;
55222;SDS011;41090;48.632;12.428;2022-10-16T03:52:54;3.60;;;2.87;;
55222;SDS011;41090;48.632;12.428;2022-10-16T03:57:47;4.30;;;2.73;;
55222;SDS011;41090;48.632;12.428;2022-10-16T04:00:13;2.97;;;2.70;;
55222;SDS011;41090;48.632;12.428;2022-10-16T04:02:38;2.73;;;2.43;;
55222;SDS011;41090;48.632;12.428;2022-10-16T04:05:04;5.10;;;2.63;;
55222;SDS011;41090;48.632;12.428;2022-10-16T04:07:29;4.10;;;3.30;;
55222;SDS011;41090;48.632;12.428;2022-10-16T04:09:54;5.20;;;2.60;;
55222;SDS011;41090;48.632;12.428;2022-10-16T04:12:20;4.10;;;2.80;;
55222;SDS011;41090;48.632;12.428;2022-10-16T04:14:45;5.40;;;2.53;;
55222;SDS011;41090;48.632;12.428;2022-10-16T04:17:11;5.50;;;2.60;;
55222;SDS011;41090;48.632;12.428;2022-10-16T04:19:36;4.63;;;3.10;;
55222;SDS011;41090;48.632;12.428;2022-10-16T04:22:01;4.63;;;2.60;;
55222;SDS011;41090;48.632;12.428;2022-10-16T04:24:27;2.93;;;2.43;;
55222;SDS011;41090;48.632;12.428;2022-10-16T04:26:52;2.70;;;2.50;;
55222;SDS011;41090;48.632;12.428;2022-10-16T04:29:17;2.70;;;2.50;;
55222;SDS011;41090;48.632;12.428;2022-10-16T04:31:43;7.73;;;2.80;;
55222;SDS011;41090;48.632;12.428;2022-10-16T04:34:08;3.63;;;2.40;;
55222;SDS011;41090;48.632;12.428;2022-10-16T04:36:33;3.37;;;2.63;;
55222;SDS011;41090;48.632;12.428;2022-10-16T04:38:59;2.50;;;2.30;;
55222;SDS011;41090;48.632;12.428;2022-10-16T04:41:24;6.33;;;2.73;;
55222;SDS011;41090;48.632;12.428;2022-10-16T04:43:50;2.83;;;2.60;;
55222;SDS011;41090;48.632;12.428;2022-10-16T04:46:15;2.60;;;2.40;;
55222;SDS011;41090;48.632;12.428;2022-10-16T04:48:40;4.27;;;2.50;;
55222;SDS011;41090;48.632;12.428;2022-10-16T04:51:06;5.07;;;3.40;;
55222;SDS011;41090;48.632;12.428;2022-10-16T04:53:31;4.17;;;3.30;;
55222;SDS011;41090;48.632;12.428;2022-10-16T04:55:56;10.57;;;4.50;;
55222;SDS011;41090;48.632;12.428;2022-10-16T04:58:22;5.00;;;4.50;;
55222;SDS011;41090;48.632;12.428;2022-10-16T05:00:50;5.40;;;4.90;;
55222;SDS011;41090;48.632;12.428;2022-10-16T05:03:15;6.73;;;4.63;;
55222;SDS011;41090;48.632;12.428;2022-10-16T05:05:44;6.47;;;4.30;;
55222;SDS011;41090;48.632;12.428;2022-10-16T05:08:10;3.70;;;3.40;;
55222;SDS011;41090;48.632;12.428;2022-10-16T05:10:36;5.30;;;3.60;;
55222;SDS011;41090;48.632;12.428;2022-10-16T05:13:04;4.83;;;3.00;;
55222;SDS011;41090;48.632;12.428;2022-10-16T05:15:29;3.40;;;3.10;;
55222;SDS011;41090;48.632;12.428;2022-10-16T05:17:55;5.70;;;3.60;;
55222;SDS011;41090;48.632;12.428;2022-10-16T05:20:21;4.97;;;3.20;;
55222;SDS011;41090;48.632;12.428;2022-10-16T05:22:46;3.23;;;2.90;;
55222;SDS011;41090;48.632;12.428;2022-10-16T05:25:11;3.47;;;3.17;;
55222;SDS011;41090;48.632;12.428;2022-10-16T05:27:36;3.40;;;3.10;;
55222;SDS011;41090;48.632;12.428;2022-10-16T05:30:02;4.20;;;2.93;;
55222;SDS011;41090;48.632;12.428;2022-10-16T05:32:28;3.70;;;3.40;;
55222;SDS011;41090;48.632;12.428;2022-10-16T05:34:54;5.13;;;3.13;;
55222;SDS011;41090;48.632;12.428;2022-10-16T05:37:30;4.77;;;3.33;;
55222;SDS011;41090;48.632;12.428;2022-10-16T05:39:58;4.93;;;3.70;;
55222;SDS011;41090;48.632;12.428;2022-10-16T05:42:24;3.80;;;3.50;;
55222;SDS011;41090;48.632;12.428;2022-10-16T05:44:52;4.47;;;3.20;;
55222;SDS011;41090;48.632;12.428;2022-10-16T05:47:18;6.13;;;2.90;;
55222;SDS011;41090;48.632;12.428;2022-10-16T05:49:45;4.43;;;3.43;;
55222;SDS011;41090;48.632;12.428;2022-10-16T05:52:11;3.63;;;2.87;;
55222;SDS011;41090;48.632;12.428;2022-10-16T05:54:36;3.33;;;2.90;;
55222;SDS011;41090;48.632;12.428;2022-10-16T05:57:01;5.17;;;3.50;;
55222;SDS011;41090;48.632;12.428;2022-10-16T05:59:27;5.63;;;4.00;;
55222;SDS011;41090;48.632;12.428;2022-10-16T06:01:52;5.37;;;4.50;;
55222;SDS011;41090;48.632;12.428;2022-10-16T06:04:18;6.53;;;4.47;;
55222;SDS011;41090;48.632;12.428;2022-10-16T06:06:44;5.10;;;4.50;;
55222;SDS011;41090;48.632;12.428;2022-10-16T06:09:09;5.47;;;3.80;;
55222;SDS011;41090;48.632;12.428;2022-10-16T06:11:34;4.63;;;3.80;;
55222;SDS011;41090;48.632;12.428;2022-10-16T06:14:01;6.53;;;3.97;;
55222;SDS011;41090;48.632;12.428;2022-10-16T06:16:27;5.00;;;3.80;;
55222;SDS011;41090;48.632;12.428;2022-10-16T06:18:53;6.00;;;4.53;;
55222;SDS011;41090;48.632;12.428;2022-10-16T06:21:20;4.70;;;4.30;;
55222;SDS011;41090;48.632;12.428;2022-10-16T06:23:45;3.87;;;3.57;;
55222;SDS011;41090;48.632;12.428;2022-10-16T06:26:12;5.73;;;3.67;;
55222;SDS011;41090;48.632;12.428;2022-10-16T06:28:37;6.63;;;3.33;;
55222;SDS011;41090;48.632;12.428;2022-10-16T06:31:03;5.53;;;3.80;;
55222;SDS011;41090;48.632;12.428;2022-10-16T06:33:29;5.23;;;4.73;;
55222;SDS011;41090;48.632;12.428;2022-10-16T06:35:59;4.80;;;4.40;;
55222;SDS011;41090;48.632;12.428;2022-10-16T06:38:25;5.33;;;4.17;;
55222;SDS011;41090;48.632;12.428;2022-10-16T06:40:50;6.63;;;4.13;;
55222;SDS011;41090;48.632;12.428;2022-10-16T06:43:15;4.60;;;3.70;;
55222;SDS011;41090;48.632;12.428;2022-10-16T06:45:40;4.50;;;3.60;;
55222;SDS011;41090;48.632;12.428;2022-10-16T06:48:06;3.50;;;3.20;;
55222;SDS011;41090;48.632;12.428;2022-10-16T06:50:31;3.83;;;3.53;;
55222;SDS011;41090;48.632;12.428;2022-10-16T06:52:57;6.07;;;3.67;;
55222;SDS011;41090;48.632;12.428;2022-10-16T06:55:22;3.20;;;3.00;;
55222;SDS011;41090;48.632;12.428;2022-10-16T06:57:47;4.63;;;3.30;;
55222;SDS011;41090;48.632;12.428;2022-10-16T07:00:13;4.20;;;2.90;;
55222;SDS011;41090;48.632;12.428;2022-10-16T07:02:39;3.60;;;3.30;;
55222;SDS011;41090;48.632;12.428;2022-10-16T07:05:04;3.70;;;3.30;;
55222;SDS011;41090;48.632;12.428;2022-10-16T07:07:29;4.50;;;3.57;;
55222;SDS011;41090;48.632;12.428;2022-10-16T07:09:55;3.40;;;3.10;;
55222;SDS011;41090;48.632;12.428;2022-10-16T07:12:20;3.30;;;3.00;;
55222;SDS011;41090;48.632;12.428;2022-10-16T07:14:46;3.37;;;3.03;;
55222;SDS011;41090;48.632;12.428;2022-10-16T07:17:11;3.67;;;3.37;;
55222;SDS011;41090;48.632;12.428;2022-10-16T07:19:36;3.17;;;2.97;;
55222;SDS011;41090;48.632;12.428;2022-10-16T07:22:01;3.60;;;3.30;;
55222;SDS011;41090;48.632;12.428;2022-10-16T07:24:28;5.53;;;3.47;;
55222;SDS011;41090;48.632;12.428;2022-10-16T07:26:53;4.63;;;3.37;;
55222;SDS011;41090;48.632;12.428;2022-10-16T07:29:19;3.40;;;3.10;;
55222;SDS011;41090;48.632;12.428;2022-10-16T07:31:45;4.07;;;3.20;;
55222;SDS011;41090;48.632;12.428;2022-10-16T07:34:11;3.60;;;3.30;;
55222;SDS011;41090;48.632;12.428;2022-10-16T07:36:36;6.60;;;3.23;;
55222;SDS011;41090;48.632;12.428;2022-10-16T07:39:02;3.50;;;3.20;;
55222;SDS011;41090;48.632;12.428;2022-10-16T07:41:27;3.33;;;3.07;;
55222;SDS011;41090;48.632;12.428;2022-10-16T07:43:53;4.03;;;3.60;;
55222;SDS011;41090;48.632;12.428;2022-10-16T07:46:21;5.03;;;3.23;;
55222;SDS011;41090;48.632;12.428;2022-10-16T07:48:46;5.77;;;3.13;;
55222;SDS011;41090;48.632;12.428;2022-10-16T07:51:12;3.90;;;2.80;;
55222;SDS011;41090;48.632;12.428;2022-10-16T07:53:38;4.17;;;2.80;;
55222;SDS011;41090;48.632;12.428;2022-10-16T07:56:04;3.83;;;3.03;;
55222;SDS011;41090;48.632;12.428;2022-10-16T07:58:30;3.57;;;3.27;;
55222;SDS011;41090;48.632;12.428;2022-10-16T08:00:56;6.70;;;3.70;;
55222;SDS011;41090;48.632;12.428;2022-10-16T08:03:22;4.20;;;3.20;;
55222;SDS011;41090;48.632;12.428;2022-10-16T08:05:47;6.07;;;4.00;;
55222;SDS011;41090;48.632;12.428;2022-10-16T08:08:13;4.15;;;3.22;;
55222;SDS011;41090;48.632;12.428;2022-10-16T08:10:38;5.30;;;3.33;;
55222;SDS011;41090;48.632;12.428;2022-10-16T08:13:04;3.47;;;2.67;;
55222;SDS011;41090;48.632;12.428;2022-10-16T08:15:29;3.90;;;3.10;;
55222;SDS011;41090;48.632;12.428;2022-10-16T08:17:58;3.92;;;2.80;;
55222;SDS011;41090;48.632;12.428;2022-10-16T08:20:23;3.58;;;3.10;;
55222;SDS011;41090;48.632;12.428;2022-10-16T08:22:48;3.70;;;3.30;;
55222;SDS011;41090;48.632;12.428;2022-10-16T08:25:14;7.72;;;3.45;;
55222;SDS011;41090;48.632;12.428;2022-10-16T08:27:39;3.75;;;3.45;;
55222;SDS011;41090;48.632;12.428;2022-10-16T08:30:04;5.15;;;3.28;;
55222;SDS011;41090;48.632;12.428;2022-10-16T08:32:30;3.95;;;2.88;;
55222;SDS011;41090;48.632;12.428;2022-10-16T08:34:55;3.50;;;2.92;;
55222;SDS011;41090;48.632;12.428;2022-10-16T08:37:20;4.55;;;3.50;;
55222;SDS011;41090;48.632;12.428;2022-10-16T08:39:45;7.65;;;3.22;;
55222;SDS011;41090;48.632;12.428;2022-10-16T08:42:14;4.63;;;2.75;;
55222;SDS011;41090;48.632;12.428;2022-10-16T08:45:00;3.03;;;2.50;;
55222;SDS011;41090;48.632;12.428;2022-10-16T08:50:10;6.88;;;2.72;;
55222;SDS011;41090;48.632;12.428;2022-10-16T08:52:38;2.42;;;2.20;;
55222;SDS011;41090;48.632;12.428;2022-10-16T08:55:04;4.18;;;2.70;;
55222;SDS011;41090;48.632;12.428;2022-10-16T08:57:29;2.70;;;2.33;;
55222;SDS011;41090;48.632;12.428;2022-10-16T08:59:57;5.40;;;2.38;;
55222;SDS011;41090;48.632;12.428;2022-10-16T09:02:32;2.97;;;2.10;;
55222;SDS011;41090;48.632;12.428;2022-10-16T09:12:28;2.40;;;2.20;;
55222;SDS011;41090;48.632;12.428;2022-10-16T09:15:02;4.10;;;2.20;;
55222;SDS011;41090;48.632;12.428;2022-10-16T09:20:28;2.38;;;1.80;;
55222;SDS011;41090;48.632;12.428;2022-10-16T09:23:08;2.80;;;1.92;;
55222;SDS011;41090;48.632;12.428;2022-10-16T09:25:49;2.42;;;1.95;;
55222;SDS011;41090;48.632;12.428;2022-10-16T09:28:16;2.13;;;1.90;;
55222;SDS011;41090;48.632;12.428;2022-10-16T09:30:41;4.55;;;2.10;;
55222;SDS011;41090;48.632;12.428;2022-10-16T09:33:07;2.50;;;2.25;;
55222;SDS011;41090;48.632;12.428;2022-10-16T09:38:02;2.65;;;2.30;;
55222;SDS011;41090;48.632;12.428;2022-10-16T09:40:32;3.30;;;2.15;;
55222;SDS011;41090;48.632;12.428;2022-10-16T09:45:43;2.67;;;2.20;;
55222;SDS011;41090;48.632;12.428;2022-10-16T09:48:17;4.68;;;1.77;;
55222;SDS011;41090;48.632;12.428;2022-10-16T09:50:54;2.92;;;1.90;;
55222;SDS011;41090;48.632;12.428;2022-10-16T09:53:20;3.28;;;1.92;;
55222;SDS011;41090;48.632;12.428;2022-10-16T09:55:50;2.92;;;1.77;;
55222;SDS011;41090;48.632;12.428;2022-10-16T09:58:16;2.72;;;1.77;;
55222;SDS011;41090;48.632;12.428;2022-10-16T10:00:42;4.13;;;2.22;;
55222;SDS011;41090;48.632;12.428;2022-10-16T10:03:10;2.10;;;1.90;;
55222;SDS011;41090;48.632;12.428;2022-10-16T10:05:36;2.40;;;1.67;;
55222;SDS011;41090;48.632;12.428;2022-10-16T10:08:04;1.60;;;1.50;;
55222;SDS011;41090;48.632;12.428;2022-10-16T10:10:32;3.00;;;1.50;;
55222;SDS011;41090;48.632;12.428;2022-10-16T10:12:57;2.20;;;1.50;;
55222;SDS011;41090;48.632;12.428;2022-10-16T10:15:23;3.38;;;1.95;;
55222;SDS011;41090;48.632;12.428;2022-10-16T10:17:53;2.85;;;1.60;;
55222;SDS011;41090;48.632;12.428;2022-10-16T10:20:28;1.98;;;1.65;;
55222;SDS011;41090;48.632;12.428;2022-10-16T10:22:54;2.28;;;1.45;;
55222;SDS011;41090;48.632;12.428;2022-10-16T10:33:17;4.38;;;1.60;;
55222;SDS011;41090;48.632;12.428;2022-10-16T10:41:11;1.70;;;1.60;;
55222;SDS011;41090;48.632;12.428;2022-10-16T10:43:45;3.50;;;1.52;;
55222;SDS011;41090;48.632;12.428;2022-10-16T10:52:19;2.10;;;1.70;;
55222;SDS011;41090;48.632;12.428;2022-10-16T10:57:19;2.22;;;1.60;;
55222;SDS011;41090;48.632;12.428;2022-10-16T10:59:49;2.20;;;1.48;;
55222;SDS011;41090;48.632;12.428;2022-10-16T11:02:23;1.70;;;1.60;;
55222;SDS011;41090;48.632;12.428;2022-10-16T11:07:26;3.13;;;1.75;;
55222;SDS011;41090;48.632;12.428;2022-10-16T11:09:56;3.25;;;1.50;;
55222;SDS011;41090;48.632;12.428;2022-10-16T11:12:33;2.30;;;1.65;;
55222;SDS011;41090;48.632;12.428;2022-10-16T11:15:15;2.35;;;1.50;;
55222;SDS011;41090;48.632;12.428;2022-10-16T11:20:24;1.60;;;1.50;;
55222;SDS011;41090;48.632;12.428;2022-10-16T11:30:39;2.00;;;1.80;;
55222;SDS011;41090;48.632;12.428;2022-10-16T11:38:27;2.05;;;1.85;;
55222;SDS011;41090;48.632;12.428;2022-10-16T11:40:54;1.95;;;1.85;;
55222;SDS011;41090;48.632;12.428;2022-10-16T11:43:27;1.83;;;1.63;;
55222;SDS011;41090;48.632;12.428;2022-10-16T11:45:58;2.28;;;2.15;;
55222;SDS011;41090;48.632;12.428;2022-10-16T11:51:14;3.65;;;1.70;;
55222;SDS011;41090;48.632;12.428;2022-10-16T11:53:55;2.25;;;1.80;;
55222;SDS011;41090;48.632;12.428;2022-10-16T11:56:22;6.30;;;1.90;;
55222;SDS011;41090;48.632;12.428;2022-10-16T11:58:52;2.53;;;1.90;;
55222;SDS011;41090;48.632;12.428;2022-10-16T12:01:28;3.17;;;1.83;;
55222;SDS011;41090;48.632;12.428;2022-10-16T12:06:49;2.63;;;1.73;;
55222;SDS011;41090;48.632;12.428;2022-10-16T12:09:21;3.60;;;1.70;;
55222;SDS011;41090;48.632;12.428;2022-10-16T12:11:47;4.63;;;2.00;;
55222;SDS011;41090;48.632;12.428;2022-10-16T12:19:19;2.20;;;2.00;;
55222;SDS011;41090;48.632;12.428;2022-10-16T12:21:44;1.98;;;1.88;;
55222;SDS011;41090;48.632;12.428;2022-10-16T12:26:54;2.88;;;1.60;;
55222;SDS011;41090;48.632;12.428;2022-10-16T12:31:48;2.40;;;2.20;;
55222;SDS011;41090;48.632;12.428;2022-10-16T12:34:19;2.95;;;1.83;;
55222;SDS011;41090;48.632;12.428;2022-10-16T12:36:46;2.35;;;2.00;;
55222;SDS011;41090;48.632;12.428;2022-10-16T12:39:19;3.15;;;1.95;;
55222;SDS011;41090;48.632;12.428;2022-10-16T12:41:47;3.05;;;2.08;;
55222;SDS011;41090;48.632;12.428;2022-10-16T12:44:23;2.65;;;1.90;;
55222;SDS011;41090;48.632;12.428;2022-10-16T12:46:48;3.05;;;2.03;;
55222;SDS011;41090;48.632;12.428;2022-10-16T12:51:53;2.88;;;1.98;;
55222;SDS011;41090;48.632;12.428;2022-10-16T12:54:22;3.65;;;2.00;;
55222;SDS011;41090;48.632;12.428;2022-10-16T13:10:00;2.65;;;2.35;;
55222;SDS011;41090;48.632;12.428;2022-10-16T13:18:11;2.90;;;2.63;;
55222;SDS011;41090;48.632;12.428;2022-10-16T13:20:44;3.10;;;1.88;;
55222;SDS011;41090;48.632;12.428;2022-10-16T13:23:16;2.15;;;1.90;;
55222;SDS011;41090;48.632;12.428;2022-10-16T13:28:15;2.35;;;1.90;;
55222;SDS011;41090;48.632;12.428;2022-10-16T13:30:43;3.28;;;2.08;;
55222;SDS011;41090;48.632;12.428;2022-10-16T13:35:37;3.22;;;2.15;;
55222;SDS011;41090;48.632;12.428;2022-10-16T13:40:36;3.08;;;2.25;;
55222;SDS011;41090;48.632;12.428;2022-10-16T13:43:02;3.78;;;2.00;;
55222;SDS011;41090;48.632;12.428;2022-10-16T13:45:27;3.65;;;2.10;;
55222;SDS011;41090;48.632;12.428;2022-10-16T13:48:03;4.88;;;1.92;;
55222;SDS011;41090;48.632;12.428;2022-10-16T13:50:28;3.45;;;2.40;;
55222;SDS011;41090;48.632;12.428;2022-10-16T13:53:03;3.55;;;2.28;;
55222;SDS011;41090;48.632;12.428;2022-10-16T13:55:28;2.75;;;2.30;;
55222;SDS011;41090;48.632;12.428;2022-10-16T13:57:53;2.40;;;2.20;;
55222;SDS011;41090;48.632;12.428;2022-10-16T14:00:29;2.35;;;2.00;;
55222;SDS011;41090;48.632;12.428;2022-10-16T14:03:07;2.38;;;2.17;;
55222;SDS011;41090;48.632;12.428;2022-10-16T14:05:33;2.17;;;1.98;;
55222;SDS011;41090;48.632;12.428;2022-10-16T14:07:58;2.85;;;2.20;;
55222;SDS011;41090;48.632;12.428;2022-10-16T14:10:27;2.40;;;2.20;;
55222;SDS011;41090;48.632;12.428;2022-10-16T14:13:01;2.47;;;2.28;;
55222;SDS011;41090;48.632;12.428;2022-10-16T14:15:29;2.28;;;2.00;;
55222;SDS011;41090;48.632;12.428;2022-10-16T14:17:55;3.15;;;2.20;;
55222;SDS011;41090;48.632;12.428;2022-10-16T14:20:21;4.80;;;2.50;;
55222;SDS011;41090;48.632;12.428;2022-10-16T14:22:47;2.25;;;2.03;;
55222;SDS011;41090;48.632;12.428;2022-10-16T14:25:29;5.63;;;2.30;;
55222;SDS011;41090;48.632;12.428;2022-10-16T14:30:25;2.47;;;2.00;;
55222;SDS011;41090;48.632;12.428;2022-10-16T14:35:27;2.85;;;1.90;;
55222;SDS011;41090;48.632;12.428;2022-10-16T14:37:55;2.45;;;2.03;;
55222;SDS011;41090;48.632;12.428;2022-10-16T14:40:25;2.85;;;2.10;;
55222;SDS011;41090;48.632;12.428;2022-10-16T14:42:51;4.20;;;2.20;;
55222;SDS011;41090;48.632;12.428;2022-10-16T14:45:20;2.80;;;2.03;;
55222;SDS011;41090;48.632;12.428;2022-10-16T14:47:47;2.85;;;2.15;;
55222;SDS011;41090;48.632;12.428;2022-10-16T14:50:13;5.82;;;2.30;;
55222;SDS011;41090;48.632;12.428;2022-10-16T14:52:38;3.22;;;2.20;;
55222;SDS011;41090;48.632;12.428;2022-10-16T14:55:04;7.65;;;2.47;;
55222;SDS011;41090;48.632;12.428;2022-10-16T14:57:30;6.05;;;2.72;;
55222;SDS011;41090;48.632;12.428;2022-10-16T14:59:56;2.45;;;1.85;;
55222;SDS011;41090;48.632;12.428;2022-10-16T15:02:29;3.35;;;2.10;;
55222;SDS011;41090;48.632;12.428;2022-10-16T15:04:55;2.65;;;2.03;;
55222;SDS011;41090;48.632;12.428;2022-10-16T15:07:20;3.80;;;2.20;;
55222;SDS011;41090;48.632;12.428;2022-10-16T15:09:45;2.20;;;2.00;;
55222;SDS011;41090;48.632;12.428;2022-10-16T15:12:11;3.28;;;2.30;;
55222;SDS011;41090;48.632;12.428;2022-10-16T15:14:36;2.97;;;2.25;;
55222;SDS011;41090;48.632;12.428;2022-10-16T15:17:01;2.85;;;2.50;;
55222;SDS011;41090;48.632;12.428;2022-10-16T15:19:27;3.85;;;2.30;;
55222;SDS011;41090;48.632;12.428;2022-10-16T15:21:52;4.22;;;2.67;;
55222;SDS011;41090;48.632;12.428;2022-10-16T15:24:17;2.80;;;2.60;;
55222;SDS011;41090;48.632;12.428;2022-10-16T15:26:43;4.35;;;3.00;;
55222;SDS011;41090;48.632;12.428;2022-10-16T15:29:08;7.47;;;3.20;;
55222;SDS011;41090;48.632;12.428;2022-10-16T15:31:33;3.72;;;3.22;;
55222;SDS011;41090;48.632;12.428;2022-10-16T15:33:59;3.70;;;3.40;;
55222;SDS011;41090;48.632;12.428;2022-10-16T15:36:29;4.78;;;3.70;;
55222;SDS011;41090;48.632;12.428;2022-10-16T15:38:56;6.38;;;3.97;;
55222;SDS011;41090;48.632;12.428;2022-10-16T15:41:21;8.00;;;4.40;;
55222;SDS011;41090;48.632;12.428;2022-10-16T15:43:47;5.97;;;5.10;;
55222;SDS011;41090;48.632;12.428;2022-10-16T15:46:22;5.65;;;4.40;;
55222;SDS011;41090;48.632;12.428;2022-10-16T15:48:48;5.75;;;4.63;;
55222;SDS011;41090;48.632;12.428;2022-10-16T15:51:14;7.18;;;4.60;;
55222;SDS011;41090;48.632;12.428;2022-10-16T15:53:40;5.93;;;5.03;;
55222;SDS011;41090;48.632;12.428;2022-10-16T15:56:05;5.90;;;4.40;;
55222;SDS011;41090;48.632;12.428;2022-10-16T15:58:33;5.38;;;4.90;;
55222;SDS011;41090;48.632;12.428;2022-10-16T16:00:59;5.65;;;4.45;;
55222;SDS011;41090;48.632;12.428;2022-10-16T16:03:28;5.13;;;4.70;;
55222;SDS011;41090;48.632;12.428;2022-10-16T16:05:54;6.07;;;5.20;;
55222;SDS011;41090;48.632;12.428;2022-10-16T16:08:19;6.27;;;5.63;;
55222;SDS011;41090;48.632;12.428;2022-10-16T16:10:45;7.37;;;5.37;;
55222;SDS011;41090;48.632;12.428;2022-10-16T16:13:10;6.40;;;5.80;;
55222;SDS011;41090;48.632;12.428;2022-10-16T16:15:38;6.80;;;5.57;;
55222;SDS011;41090;48.632;12.428;2022-10-16T16:18:03;6.27;;;5.67;;
55222;SDS011;41090;48.632;12.428;2022-10-16T16:20:30;7.67;;;6.13;;
55222;SDS011;41090;48.632;12.428;2022-10-16T16:22:55;7.70;;;5.93;;
55222;SDS011;41090;48.632;12.428;2022-10-16T16:25:21;8.07;;;5.90;;
55222;SDS011;41090;48.632;12.428;2022-10-16T16:27:46;6.17;;;5.57;;
55222;SDS011;41090;48.632;12.428;2022-10-16T16:30:11;6.90;;;5.87;;
55222;SDS011;41090;48.632;12.428;2022-10-16T16:32:36;6.47;;;5.53;;
55222;SDS011;41090;48.632;12.428;2022-10-16T16:35:02;7.07;;;6.37;;
55222;SDS011;41090;48.632;12.428;2022-10-16T16:37:28;7.77;;;6.57;;
55222;SDS011;41090;48.632;12.428;2022-10-16T16:39:53;7.50;;;6.77;;